Time;durP1;ratioP1;P1;durP2;ratioP2;P2;SDS_P1;SDS_P2;PMS_P1;PMS_P2;Temp;Humidity;BMP_temperature;BMP_pressure;BME280_temperature;BME280_humidity;BME280_pressure;Samples;Min_cycle;Max_cycle;Signal;HPM_P1;HPM_P2
2022/01/11 00:00:48;;;;;;;;;;;;;;;0.17;100.00;103015.97;5027204;28;19960;-78
2022/01/11 00:03:15;;;;;;;;;;;;;;;0.21;100.00;103015.25;5030590;28;20278;-78
2022/01/11 00:11:04;;;;;;;;;;;;;;;0.17;100.00;103015.97;5013875;28;19929;-75
2022/01/11 00:13:30;;;;;;;;;;;;;;;0.27;100.00;103018.03;5028060;28;19932;-76
2022/01/11 00:15:56;;;;;;;;;;;;;;;0.18;100.00;103015.16;5025967;28;19932;-75
2022/01/11 00:18:21;;;;;;;;;;;;;;;0.18;100.00;103008.25;5034230;28;19917;-74
2022/01/11 00:20:46;;;;;;;;;;;;;;;0.19;100.00;103004.84;5032303;28;19924;-75
2022/01/11 00:25:53;;;;;;;;;;;;;;;0.20;99.97;103010.91;5035180;28;20028;-76
2022/01/11 00:28:19;;;;;;;;;;;;;;;0.13;100.00;103012.44;5036104;28;19917;-74
2022/01/11 00:30:46;;;;;;;;;;;;;;;0.14;100.00;103016.78;5040669;28;20036;-74
2022/01/11 00:38:49;;;;;;;;;;;;;;;0.28;100.00;103002.53;5028274;28;19921;-74
2022/01/11 00:41:15;;;;;;;;;;;;;;;0.24;100.00;103012.75;5026764;28;20374;-74
2022/01/11 00:43:41;;;;;;;;;;;;;;;0.16;100.00;103012.53;5043041;28;19925;-74
2022/01/11 00:46:09;;;;;;;;;;;;;;;0.13;100.00;103015.00;5028142;28;19971;-73
2022/01/11 00:48:39;;;;;;;;;;;;;;;0.24;100.00;103012.75;5030282;28;19988;-74
2022/01/11 00:51:04;;;;;;;;;;;;;;;0.17;100.00;103016.84;5024394;28;19921;-75
2022/01/11 00:53:30;;;;;;;;;;;;;;;0.16;100.00;103022.88;5040821;28;19921;-74
2022/01/11 00:55:55;;;;;;;;;;;;;;;0.16;100.00;103025.47;5038436;28;19929;-74
2022/01/11 00:58:20;;;;;;;;;;;;;;;0.20;100.00;103016.94;5035505;28;20386;-74
2022/01/11 01:00:46;;;;;;;;;;;;;;;0.24;99.99;103007.56;5039933;28;19978;-74
2022/01/11 01:03:12;;;;;;;;;;;;;;;0.27;99.68;103002.50;5031930;28;20357;-75
2022/01/11 01:05:37;;;;;;;;;;;;;;;0.14;99.78;103015.03;5037341;28;19948;-75
2022/01/11 01:08:03;;;;;;;;;;;;;;;0.13;99.81;103009.84;5030913;28;19924;-74
2022/01/11 01:13:10;;;;;;;;;;;;;;;0.06;100.00;103020.78;5023339;28;19970;-73
2022/01/11 01:15:36;;;;;;;;;;;;;;;0.00;100.00;103018.91;5039290;28;19921;-74
2022/01/11 01:18:02;;;;;;;;;;;;;;;0.01;100.00;103019.78;5042523;28;19923;-75
2022/01/11 01:20:27;;;;;;;;;;;;;;;-0.06;100.00;103029.03;5034521;28;20418;-74
2022/01/11 01:22:52;;;;;;;;;;;;;;;-0.11;100.00;103030.59;5045783;28;20668;-75
2022/01/11 01:28:00;;;;;;;;;;;;;;;-0.13;100.00;103032.25;5037597;28;19921;-75
2022/01/11 01:30:25;;;;;;;;;;;;;;;-0.10;100.00;103037.50;5044094;28;19927;-75
2022/01/11 01:32:51;;;;;;;;;;;;;;;-0.12;100.00;103036.59;5037783;28;20429;-75
2022/01/11 01:35:18;;;;;;;;;;;;;;;-0.20;100.00;103039.78;5032512;28;19921;-75
2022/01/11 01:37:44;;;;;;;;;;;;;;;-0.24;100.00;103048.28;5043897;28;19921;-75
2022/01/11 01:40:12;;;;;;;;;;;;;;;-0.25;100.00;103048.19;5044709;28;19924;-75
2022/01/11 01:42:37;;;;;;;;;;;;;;;-0.27;100.00;103052.44;5043794;28;20463;-76
2022/01/11 01:45:03;;;;;;;;;;;;;;;-0.30;100.00;103055.78;5034976;28;19931;-76
2022/01/11 01:47:29;;;;;;;;;;;;;;;-0.36;100.00;103053.88;5028952;28;19925;-75
2022/01/11 01:49:55;;;;;;;;;;;;;;;-0.42;100.00;103050.19;5035968;28;20870;-75
2022/01/11 01:52:20;;;;;;;;;;;;;;;-0.39;100.00;103060.66;5041181;28;21292;-74
2022/01/11 01:54:46;;;;;;;;;;;;;;;-0.39;100.00;103058.06;5039212;28;19928;-75
2022/01/11 01:57:12;;;;;;;;;;;;;;;-0.33;100.00;103060.88;5024268;28;19925;-74
2022/01/11 01:59:37;;;;;;;;;;;;;;;-0.36;100.00;103050.44;5036087;28;20000;-72
2022/01/11 02:02:03;;;;;;;;;;;;;;;-0.19;100.00;103051.00;5038848;28;20000;-72
2022/01/11 02:04:29;;;;;;;;;;;;;;;-0.24;100.00;103042.22;5036887;28;19916;-72
2022/01/11 02:06:54;;;;;;;;;;;;;;;-0.32;100.00;103052.28;5035444;28;19928;-73
2022/01/11 02:09:20;;;;;;;;;;;;;;;-0.26;100.00;103043.84;5034123;28;19951;-73
2022/01/11 02:12:00;;;;;;;;;;;;;;;-0.23;100.00;103043.97;5033180;28;19921;-73
2022/01/11 02:14:26;;;;;;;;;;;;;;;-0.29;100.00;103057.56;5036327;28;19921;-75
2022/01/11 02:16:52;;;;;;;;;;;;;;;-0.28;100.00;103061.91;5037915;28;19952;-74
2022/01/11 02:19:17;;;;;;;;;;;;;;;-0.21;100.00;103050.94;5039494;28;20010;-75
2022/01/11 02:21:43;;;;;;;;;;;;;;;-0.19;100.00;103059.63;5035446;28;19917;-74
2022/01/11 02:24:08;;;;;;;;;;;;;;;-0.29;100.00;103056.69;5048262;28;20408;-76
2022/01/11 02:26:33;;;;;;;;;;;;;;;-0.26;100.00;103054.19;5036521;28;20381;-74
2022/01/11 02:28:59;;;;;;;;;;;;;;;-0.23;100.00;103065.53;5034044;28;19983;-74
2022/01/11 02:31:24;;;;;;;;;;;;;;;-0.27;100.00;103066.25;5034320;28;20008;-74
2022/01/11 02:33:51;;;;;;;;;;;;;;;-0.27;100.00;103070.50;5023750;28;19921;-74
2022/01/11 02:36:18;;;;;;;;;;;;;;;-0.30;100.00;103073.88;5045200;28;19924;-74
2022/01/11 02:38:44;;;;;;;;;;;;;;;-0.33;100.00;103072.06;5037260;28;19963;-74
2022/01/11 02:41:10;;;;;;;;;;;;;;;-0.25;100.00;103079.19;5042358;28;19920;-74
2022/01/11 02:43:39;;;;;;;;;;;;;;;-0.24;100.00;103083.53;5039139;28;19955;-74
2022/01/11 02:46:04;;;;;;;;;;;;;;;-0.28;100.00;103082.56;5045833;28;19918;-74
2022/01/11 02:48:30;;;;;;;;;;;;;;;-0.23;100.00;103081.03;5039511;28;19971;-74
2022/01/11 02:50:55;;;;;;;;;;;;;;;-0.17;100.00;103067.44;5012919;28;19925;-74
2022/01/11 02:53:21;;;;;;;;;;;;;;;-0.23;100.00;103074.97;5037141;28;20290;-75
2022/01/11 02:55:46;;;;;;;;;;;;;;;-0.26;100.00;103070.59;5046496;28;19933;-74
2022/01/11 02:58:12;;;;;;;;;;;;;;;-0.23;100.00;103068.13;5045061;28;20638;-74
2022/01/11 03:00:39;;;;;;;;;;;;;;;-0.21;100.00;103071.59;5039383;28;20382;-74
2022/01/11 03:06:02;;;;;;;;;;;;;;;-0.27;100.00;103066.25;5032412;28;20408;-74
2022/01/11 03:08:29;;;;;;;;;;;;;;;-0.27;100.00;103075.69;5038110;28;20050;-74
2022/01/11 03:10:55;;;;;;;;;;;;;;;-0.32;100.00;103089.34;5017886;28;20704;-74
2022/01/11 03:13:21;;;;;;;;;;;;;;;-0.24;100.00;103089.59;5019244;28;19924;-73
2022/01/11 03:15:47;;;;;;;;;;;;;;;-0.20;100.00;103088.00;5049396;28;19917;-73
2022/01/11 03:18:13;;;;;;;;;;;;;;;-0.20;100.00;103081.13;5038083;28;19928;-73
2022/01/11 03:20:39;;;;;;;;;;;;;;;-0.21;100.00;103081.94;5037420;28;20382;-73
2022/01/11 03:23:05;;;;;;;;;;;;;;;-0.14;100.00;103082.16;5040081;28;19924;-73
2022/01/11 03:25:30;;;;;;;;;;;;;;;-0.08;100.00;103072.03;5042554;28;19921;-73
2022/01/11 03:27:56;;;;;;;;;;;;;;;-0.12;100.00;103073.63;5039465;28;19925;-73
2022/01/11 03:30:21;;;;;;;;;;;;;;;-0.08;100.00;103061.69;5045080;28;19974;-74
2022/01/11 03:32:47;;;;;;;;;;;;;;;-0.09;100.00;103059.94;5017028;28;19974;-74
2022/01/11 03:35:13;;;;;;;;;;;;;;;-0.09;100.00;103065.09;5035414;28;19932;-74
2022/01/11 03:37:40;;;;;;;;;;;;;;;-0.10;100.00;103066.81;5039293;28;20043;-73
2022/01/11 03:40:06;;;;;;;;;;;;;;;-0.13;100.00;103066.69;5037561;28;19929;-73
2022/01/11 03:42:32;;;;;;;;;;;;;;;-0.13;100.00;103068.44;5041626;28;19952;-73
2022/01/11 03:44:57;;;;;;;;;;;;;;;-0.09;100.00;103073.75;5032250;28;19956;-73
2022/01/11 03:47:22;;;;;;;;;;;;;;;-0.10;100.00;103074.56;5037743;28;20312;-73
2022/01/11 03:49:48;;;;;;;;;;;;;;;-0.14;100.00;103067.53;5035529;28;19924;-74
2022/01/11 03:52:13;;;;;;;;;;;;;;;-0.11;100.00;103074.53;5034846;28;19921;-74
2022/01/11 03:57:19;;;;;;;;;;;;;;;-0.02;100.00;103077.41;5029202;28;19921;-80
2022/01/11 03:59:44;;;;;;;;;;;;;;;-0.02;100.00;103072.25;5030314;28;19917;-80
2022/01/11 04:02:10;;;;;;;;;;;;;;;-0.01;100.00;103064.53;5043695;28;19921;-75
2022/01/11 04:04:35;;;;;;;;;;;;;;;0.13;100.00;103071.88;5029898;28;19925;-76
2022/01/11 04:07:00;;;;;;;;;;;;;;;0.25;100.00;103071.38;5027131;28;19956;-76
2022/01/11 04:09:25;;;;;;;;;;;;;;;0.22;100.00;103071.31;5026813;28;19917;-76
2022/01/11 04:11:51;;;;;;;;;;;;;;;0.16;100.00;103074.56;5015370;28;19921;-75
2022/01/11 04:14:16;;;;;;;;;;;;;;;0.20;100.00;103076.41;5023409;28;19925;-79
2022/01/11 04:16:42;;;;;;;;;;;;;;;0.18;100.00;103079.78;5012229;28;20541;-77
2022/01/11 04:19:07;;;;;;;;;;;;;;;0.18;100.00;103082.38;5027825;28;20366;-79
2022/01/11 04:21:32;;;;;;;;;;;;;;;0.15;100.00;103076.25;5028995;28;20009;-78
2022/01/11 04:23:58;;;;;;;;;;;;;;;0.24;100.00;103078.28;5027858;28;19917;-78
2022/01/11 04:26:23;;;;;;;;;;;;;;;0.13;100.00;103088.25;5023411;28;19925;-78
2022/01/11 04:28:49;;;;;;;;;;;;;;;0.14;100.00;103084.84;5030253;28;19952;-78
2022/01/11 04:31:14;;;;;;;;;;;;;;;0.18;100.00;103085.81;5030267;28;20369;-79
2022/01/11 04:36:04;;;;;;;;;;;;;;;0.12;100.00;103080.44;5009371;28;19921;-79
2022/01/11 04:38:31;;;;;;;;;;;;;;;0.15;100.00;103084.00;5029824;28;20510;-79
2022/01/11 04:40:56;;;;;;;;;;;;;;;0.05;100.00;103087.13;5000749;28;19947;-78
2022/01/11 04:43:22;;;;;;;;;;;;;;;0.16;100.00;103087.50;5011269;28;20510;-77
2022/01/11 04:45:47;;;;;;;;;;;;;;;0.14;100.00;103094.31;5007750;28;20403;-76
2022/01/11 04:48:13;;;;;;;;;;;;;;;0.14;100.00;103083.97;5007748;28;20311;-76
2022/01/11 04:50:38;;;;;;;;;;;;;;;0.22;100.00;103082.50;5009238;28;19932;-78
2022/01/11 04:53:04;;;;;;;;;;;;;;;0.19;100.00;103081.53;5006778;28;19924;-76
2022/01/11 04:55:29;;;;;;;;;;;;;;;0.22;100.00;103081.66;5015730;28;19936;-77
2022/01/11 04:57:55;;;;;;;;;;;;;;;0.22;100.00;103077.34;5027086;28;20032;-77
2022/01/11 05:00:22;;;;;;;;;;;;;;;0.12;100.00;103081.31;5015774;28;19925;-77
2022/01/11 05:02:48;;;;;;;;;;;;;;;0.11;100.00;103078.69;5000324;28;19921;-78
2022/01/11 05:05:15;;;;;;;;;;;;;;;0.18;100.00;103082.38;5007079;28;19940;-78
2022/01/11 05:07:42;;;;;;;;;;;;;;;0.18;100.00;103084.94;5008754;28;19918;-78
2022/01/11 05:10:07;;;;;;;;;;;;;;;0.23;100.00;103083.38;5006812;28;20382;-78
2022/01/11 05:12:34;;;;;;;;;;;;;;;0.20;100.00;103086.75;5009391;28;20393;-79
2022/01/11 05:14:59;;;;;;;;;;;;;;;0.25;100.00;103089.47;5007168;28;19921;-78
2022/01/11 05:17:24;;;;;;;;;;;;;;;0.26;100.00;103089.56;5007547;28;19964;-78
2022/01/11 05:19:49;;;;;;;;;;;;;;;0.23;100.00;103088.53;5022554;28;19917;-77
2022/01/11 05:22:15;;;;;;;;;;;;;;;0.18;100.00;103087.53;5007521;28;19930;-77
2022/01/11 05:24:40;;;;;;;;;;;;;;;0.21;100.00;103080.75;5009159;28;20763;-75
2022/01/11 05:27:06;;;;;;;;;;;;;;;0.14;100.00;103084.84;5024934;28;19983;-75
2022/01/11 05:29:31;;;;;;;;;;;;;;;0.08;100.00;103092.41;5028509;28;19998;-76
2022/01/11 05:31:58;;;;;;;;;;;;;;;0.10;100.00;103079.50;5026755;28;19953;-75
2022/01/11 05:34:23;;;;;;;;;;;;;;;0.13;100.00;103079.63;5025904;28;19917;-77
2022/01/11 05:36:49;;;;;;;;;;;;;;;0.12;100.00;103086.50;5026798;28;19928;-76
2022/01/11 05:39:14;;;;;;;;;;;;;;;0.20;100.00;103080.72;5026201;28;19924;-76
2022/01/11 05:41:39;;;;;;;;;;;;;;;0.19;100.00;103085.00;5027747;28;19932;-79
2022/01/11 05:44:05;;;;;;;;;;;;;;;0.17;100.00;103093.53;5015546;28;19925;-77
2022/01/11 05:46:31;;;;;;;;;;;;;;;0.14;100.00;103094.31;5009702;28;19929;-79
2022/01/11 05:48:56;;;;;;;;;;;;;;;0.15;100.00;103094.34;5005069;28;19917;-78
2022/01/11 05:51:22;;;;;;;;;;;;;;;0.13;100.00;103090.84;4996660;28;19928;-79
2022/01/11 05:53:47;;;;;;;;;;;;;;;0.13;100.00;103101.16;4969809;28;19972;-79
2022/01/11 05:56:12;;;;;;;;;;;;;;;0.10;100.00;103108.84;5020095;28;20213;-78
2022/01/11 05:58:37;;;;;;;;;;;;;;;0.09;100.00;103107.09;5047377;28;20296;-78
2022/01/11 06:01:03;;;;;;;;;;;;;;;0.10;100.00;103116.59;5043279;28;20286;-79
2022/01/11 06:03:28;;;;;;;;;;;;;;;0.11;100.00;103114.88;5012904;28;20409;-79
2022/01/11 06:05:54;;;;;;;;;;;;;;;0.14;100.00;103123.59;5018563;28;20278;-77
2022/01/11 06:08:19;;;;;;;;;;;;;;;0.12;100.00;103122.66;5026859;28;19971;-76
2022/01/11 06:10:45;;;;;;;;;;;;;;;0.13;100.00;103118.41;5027170;28;19928;-76
2022/01/11 06:13:10;;;;;;;;;;;;;;;0.23;100.00;103114.41;5024835;28;19921;-76
2022/01/11 06:15:36;;;;;;;;;;;;;;;0.28;100.00;103118.03;5028119;28;19984;-77
2022/01/11 06:18:02;;;;;;;;;;;;;;;0.23;100.00;103124.75;5010358;28;19917;-75
2022/01/11 06:20:27;;;;;;;;;;;;;;;0.28;100.00;103124.06;5014406;28;19925;-77
2022/01/11 06:22:53;;;;;;;;;;;;;;;0.19;100.00;103134.09;5023679;28;19925;-76
2022/01/11 06:25:18;;;;;;;;;;;;;;;0.26;100.00;103135.19;5011253;28;20381;-77
2022/01/11 06:27:44;;;;;;;;;;;;;;;0.23;100.00;103122.16;5047551;28;19917;-78
2022/01/11 06:30:10;;;;;;;;;;;;;;;0.26;100.00;103119.69;5043201;28;19972;-75
2022/01/11 06:32:36;;;;;;;;;;;;;;;0.24;100.00;103127.41;5026794;28;19925;-78
2022/01/11 06:35:03;;;;;;;;;;;;;;;0.21;100.00;103121.25;5025071;28;19921;-76
2022/01/11 06:37:28;;;;;;;;;;;;;;;0.25;100.00;103125.66;5004670;28;20012;-77
2022/01/11 06:39:53;;;;;;;;;;;;;;;0.23;100.00;103124.75;4992323;28;20392;-76
2022/01/11 06:42:19;;;;;;;;;;;;;;;0.13;100.00;103134.78;5021192;28;19921;-77
2022/01/11 06:44:44;;;;;;;;;;;;;;;0.18;100.00;103136.66;5007519;28;20302;-78
2022/01/11 06:47:10;;;;;;;;;;;;;;;0.18;100.00;103139.22;5005718;28;19925;-77
2022/01/11 06:49:36;;;;;;;;;;;;;;;0.13;100.00;103142.53;5008448;28;19944;-76
2022/01/11 06:52:01;;;;;;;;;;;;;;;0.12;100.00;103148.53;5016384;28;20391;-75
2022/01/11 06:54:26;;;;;;;;;;;;;;;0.06;100.00;103153.50;5025516;28;20352;-76
2022/01/11 06:56:52;;;;;;;;;;;;;;;0.06;100.00;103144.84;5041680;28;19929;-78
2022/01/11 06:59:17;;;;;;;;;;;;;;;0.15;100.00;103140.00;5042251;28;20246;-79
2022/01/11 07:01:42;;;;;;;;;;;;;;;0.10;100.00;103142.44;5025236;28;20026;-79
2022/01/11 07:04:08;;;;;;;;;;;;;;;0.04;100.00;103147.38;5006408;28;19917;-77
2022/01/11 07:06:33;;;;;;;;;;;;;;;0.13;100.00;103152.88;5027286;28;20470;-78
2022/01/11 07:08:58;;;;;;;;;;;;;;;0.12;100.00;103148.53;5026748;28;19921;-79
2022/01/11 07:11:24;;;;;;;;;;;;;;;0.13;100.00;103158.03;5002625;28;19921;-79
2022/01/11 07:13:49;;;;;;;;;;;;;;;0.18;100.00;103157.31;5008175;28;19921;-78
2022/01/11 07:16:15;;;;;;;;;;;;;;;0.17;100.00;103151.25;5023357;28;19931;-77
2022/01/11 07:18:40;;;;;;;;;;;;;;;0.17;100.00;103153.84;5021950;28;19921;-77
2022/01/11 07:21:06;;;;;;;;;;;;;;;0.20;100.00;103158.25;5027926;28;19928;-76
2022/01/11 07:23:31;;;;;;;;;;;;;;;0.21;100.00;103154.84;5033265;28;19970;-76
2022/01/11 07:25:56;;;;;;;;;;;;;;;0.16;100.00;103159.88;5023220;28;19968;-75
2022/01/11 07:28:23;;;;;;;;;;;;;;;0.17;100.00;103155.56;5023782;28;19932;-77
2022/01/11 07:30:49;;;;;;;;;;;;;;;0.16;100.00;103154.69;5025876;28;19933;-79
2022/01/11 07:33:14;;;;;;;;;;;;;;;0.09;100.00;103163.94;5026466;28;19924;-76
2022/01/11 07:35:45;;;;;;;;;;;;;;;0.04;100.00;103162.91;5028585;28;19924;-75
2022/01/11 07:38:11;;;;;;;;;;;;;;;0.11;100.00;103156.22;5027463;28;19925;-77
2022/01/11 07:40:37;;;;;;;;;;;;;;;0.11;100.00;103156.22;5031046;28;19971;-78
2022/01/11 07:43:02;;;;;;;;;;;;;;;0.06;100.00;103161.25;5022920;28;20410;-79
2022/01/11 07:45:27;;;;;;;;;;;;;;;0.02;100.00;103166.25;5010500;28;19932;-76
2022/01/11 07:47:53;;;;;;;;;;;;;;;0.03;100.00;103168.88;5011431;28;19976;-76
2022/01/11 07:50:18;;;;;;;;;;;;;;;-0.02;100.00;103166.16;4997130;28;19917;-77
2022/01/11 07:52:44;;;;;;;;;;;;;;;-0.03;100.00;103160.94;5044343;28;20012;-77
2022/01/11 07:55:09;;;;;;;;;;;;;;;-0.03;100.00;103163.50;5030819;28;19921;-78
2022/01/11 07:57:34;;;;;;;;;;;;;;;-0.05;100.00;103170.31;5050100;28;19929;-79
2022/01/11 08:00:00;;;;;;;;;;;;;;;-0.09;100.00;103163.28;5049736;28;20003;-80
2022/01/11 08:02:26;;;;;;;;;;;;;;;-0.14;100.00;103175.19;5027082;28;20421;-77
2022/01/11 08:04:53;;;;;;;;;;;;;;;-0.11;100.00;103176.16;5027435;28;20011;-77
2022/01/11 08:07:18;;;;;;;;;;;;;;;-0.14;100.00;103178.63;5021388;28;19966;-77
2022/01/11 08:09:43;;;;;;;;;;;;;;;-0.12;100.00;103179.56;5029903;28;19921;-78
2022/01/11 08:12:09;;;;;;;;;;;;;;;-0.14;100.00;103176.03;5019359;28;20020;-79
2022/01/11 08:14:34;;;;;;;;;;;;;;;-0.15;100.00;103179.44;5032529;28;19921;-78
2022/01/11 08:16:59;;;;;;;;;;;;;;;-0.14;100.00;103185.50;5029162;28;20341;-81
2022/01/11 08:19:26;;;;;;;;;;;;;;;-0.12;100.00;103181.28;5029622;28;20009;-79
2022/01/11 08:21:52;;;;;;;;;;;;;;;-0.09;100.00;103183.94;5042296;28;19928;-78
2022/01/11 08:24:18;;;;;;;;;;;;;;;-0.09;100.00;103183.94;5028389;28;19921;-77
2022/01/11 08:26:43;;;;;;;;;;;;;;;-0.12;100.00;103189.03;5031582;28;20313;-78
2022/01/11 08:29:09;;;;;;;;;;;;;;;0.01;100.00;103196.38;5014724;28;19921;-77
2022/01/11 08:31:34;;;;;;;;;;;;;;;-0.02;100.00;103201.47;5006542;28;19933;-78
2022/01/11 08:33:59;;;;;;;;;;;;;;;-0.03;100.00;103202.28;5026136;28;20433;-76
2022/01/11 08:36:25;;;;;;;;;;;;;;;-0.03;100.00;103217.78;5025321;28;19931;-78
2022/01/11 08:38:50;;;;;;;;;;;;;;;-0.02;100.00;103214.38;5046117;28;19963;-78
2022/01/11 08:41:19;;;;;;;;;;;;;;;0.04;100.00;103209.41;5009672;28;19921;-77
2022/01/11 08:43:44;;;;;;;;;;;;;;;0.10;100.00;103196.72;5026838;28;19925;-77
2022/01/11 08:46:09;;;;;;;;;;;;;;;0.10;99.17;103196.72;5024542;28;20394;-77
2022/01/11 08:48:34;;;;;;;;;;;;;;;0.02;99.44;103190.38;5020015;28;19925;-78
2022/01/11 08:51:00;;;;;;;;;;;;;;;0.09;99.94;103188.91;5004873;28;20016;-77
2022/01/11 08:53:25;;;;;;;;;;;;;;;0.03;99.46;103194.72;5027813;28;19924;-77
2022/01/11 08:55:51;;;;;;;;;;;;;;;0.11;98.77;103198.47;5030594;28;19934;-79
2022/01/11 08:58:31;;;;;;;;;;;;;;;0.03;99.02;103212.81;5011263;28;19984;-78
2022/01/11 09:00:57;;;;;;;;;;;;;;;-0.03;99.86;103225.53;5031114;28;19921;-77
2022/01/11 09:03:23;;;;;;;;;;;;;;;-0.05;100.00;103219.44;5027648;28;20032;-80
2022/01/11 09:05:51;;;;;;;;;;;;;;;-0.08;100.00;103230.53;5011895;28;19923;-78
2022/01/11 09:08:16;;;;;;;;;;;;;;;0.08;100.00;103218.16;5027846;28;19956;-78
2022/01/11 09:10:42;;;;;;;;;;;;;;;-0.01;99.66;103210.97;5018326;28;19961;-77
2022/01/11 09:13:07;;;;;;;;;;;;;;;0.05;99.09;103211.19;5027264;28;19924;-77
2022/01/11 09:15:32;;;;;;;;;;;;;;;-0.02;99.58;103211.78;5030153;28;19917;-77
2022/01/11 09:17:58;;;;;;;;;;;;;;;0.02;99.66;103216.22;5040574;28;20428;-78
2022/01/11 09:20:23;;;;;;;;;;;;;;;0.01;99.73;103206.72;5034548;28;19921;-78
2022/01/11 09:22:49;;;;;;;;;;;;;;;0.09;99.25;103204.41;5030870;28;19925;-77
2022/01/11 09:25:15;;;;;;;;;;;;;;;0.02;98.91;103217.94;5029330;28;19917;-77
2022/01/11 09:27:41;;;;;;;;;;;;;;;0.07;99.36;103221.56;5012098;28;19921;-76
2022/01/11 09:30:08;;;;;;;;;;;;;;;0.07;99.08;103226.72;5028966;28;19948;-78
2022/01/11 09:32:34;;;;;;;;;;;;;;;0.14;99.01;103223.56;5028271;28;20412;-76
2022/01/11 09:35:00;;;;;;;;;;;;;;;0.76;97.42;103213.59;5030343;28;19925;-78
2022/01/11 09:37:25;;;;;;;;;;;;;;;1.39;94.06;103191.34;5042513;28;20270;-79
2022/01/11 09:39:50;;;;;;;;;;;;;;;1.77;91.94;103184.63;5030785;28;20293;-77
2022/01/11 09:42:16;;;;;;;;;;;;;;;1.61;91.31;103184.22;5027778;28;19921;-78
2022/01/11 09:44:41;;;;;;;;;;;;;;;1.27;92.11;103193.56;5005248;28;19924;-77
2022/01/11 09:47:08;;;;;;;;;;;;;;;1.06;93.42;103201.56;5026988;28;20293;-77
2022/01/11 09:49:34;;;;;;;;;;;;;;;0.89;94.60;103196.75;5035063;28;19921;-76
2022/01/11 09:52:02;;;;;;;;;;;;;;;0.88;95.40;103199.28;5013334;28;19928;-77
2022/01/11 09:54:27;;;;;;;;;;;;;;;0.87;95.12;103188.03;5027521;28;19976;-77
2022/01/11 09:56:52;;;;;;;;;;;;;;;0.86;95.17;103203.53;5008793;28;19957;-77
2022/01/11 09:59:18;;;;;;;;;;;;;;;0.88;95.08;103204.47;5025946;28;19920;-77
2022/01/11 10:01:43;;;;;;;;;;;;;;;1.27;96.63;103216.88;5029606;28;19991;-78
2022/01/11 10:04:23;;;;;;;;;;;;;;;1.42;93.66;103202.66;5012151;28;19918;-78
2022/01/11 10:07:04;;;;;;;;;;;;;;;1.48;92.94;103203.72;5029434;28;19917;-79
2022/01/11 10:09:30;;;;;;;;;;;;;;;1.29;93.16;103202.28;5012313;28;20293;-78
2022/01/11 10:11:57;;;;;;;;;;;;;;;1.26;94.11;103207.34;5029990;28;19929;-78
2022/01/11 10:14:38;;;;;;;;;;;;;;;1.22;93.68;103205.50;5011914;28;19924;-77
2022/01/11 10:17:19;;;;;;;;;;;;;;;1.69;92.70;103203.44;5029152;28;20016;-77
2022/01/11 10:20:00;;;;;;;;;;;;;;;2.43;89.05;103195.88;5037168;28;20271;-77
2022/01/11 10:22:25;;;;;;;;;;;;;;;2.98;86.08;103187.69;5009515;28;20309;-77
2022/01/11 10:24:52;;;;;;;;;;;;;;;3.53;83.99;103178.47;5026157;28;20004;-77
2022/01/11 10:27:19;;;;;;;;;;;;;;;3.90;84.77;103185.25;5045809;28;19925;-76
2022/01/11 10:30:00;;;;;;;;;;;;;;;4.04;81.58;103165.59;5029967;28;19917;-78
2022/01/11 10:32:27;;;;;;;;;;;;;;;4.39;79.58;103151.44;5029103;28;20496;-77
2022/01/11 10:34:54;;;;;;;;;;;;;;;4.42;79.29;103148.91;5029446;28;19967;-78
2022/01/11 10:37:34;;;;;;;;;;;;;;;4.61;78.47;103152.69;5049406;28;19923;-77
2022/01/11 10:40:03;;;;;;;;;;;;;;;4.76;77.16;103147.69;5030822;28;19978;-78
2022/01/11 10:42:32;;;;;;;;;;;;;;;4.89;77.01;103146.16;5035502;28;20032;-77
2022/01/11 10:44:59;;;;;;;;;;;;;;;5.05;76.15;103149.84;5027842;28;19971;-77
2022/01/11 10:47:26;;;;;;;;;;;;;;;5.13;76.31;103151.69;5027672;28;19921;-78
2022/01/11 10:49:53;;;;;;;;;;;;;;;4.86;76.51;103158.25;5045845;28;19925;-77
2022/01/11 10:52:19;;;;;;;;;;;;;;;4.29;78.70;103174.72;5032966;28;19956;-76
2022/01/11 10:54:45;;;;;;;;;;;;;;;3.83;80.72;103182.56;5027919;28;19936;-77
2022/01/11 10:57:26;;;;;;;;;;;;;;;2.97;83.88;103211.91;5021497;28;20315;-76
2022/01/11 11:00:07;;;;;;;;;;;;;;;2.53;86.32;103226.44;5002454;28;20638;-75
2022/01/11 11:02:32;;;;;;;;;;;;;;;2.48;86.84;103230.63;5004291;28;19923;-76
2022/01/11 11:07:38;;;;;;;;;;;;;;;2.47;88.05;103231.44;5024214;28;19929;-77
2022/01/11 11:10:04;;;;;;;;;;;;;;;2.30;88.17;103228.41;5013050;28;19921;-76
2022/01/11 11:12:29;;;;;;;;;;;;;;;2.28;88.90;103236.16;5019949;28;20020;-78
2022/01/11 11:14:55;;;;;;;;;;;;;;;2.32;89.56;103237.13;5028783;28;19936;-76
2022/01/11 11:17:36;;;;;;;;;;;;;;;2.29;89.14;103231.84;5019143;28;19933;-77
2022/01/11 11:20:02;;;;;;;;;;;;;;;2.41;88.79;103239.94;5017608;28;19929;-76
2022/01/11 11:22:28;;;;;;;;;;;;;;;2.46;88.49;103230.59;5024709;28;19921;-76
2022/01/11 11:24:53;;;;;;;;;;;;;;;2.51;88.77;103235.00;5027869;28;19943;-78
2022/01/11 11:27:20;;;;;;;;;;;;;;;2.68;88.34;103235.44;5028926;28;20682;-78
2022/01/11 11:29:46;;;;;;;;;;;;;;;2.67;88.09;103218.09;5019978;28;19959;-76
2022/01/11 11:32:12;;;;;;;;;;;;;;;2.75;87.53;103212.25;5020763;28;19949;-76
2022/01/11 11:34:37;;;;;;;;;;;;;;;2.85;87.68;103213.38;5028024;28;19924;-75
2022/01/11 11:37:05;;;;;;;;;;;;;;;2.88;87.48;103215.16;5030739;28;20020;-75
2022/01/11 11:39:31;;;;;;;;;;;;;;;3.14;87.39;103214.91;5029071;28;19928;-76
2022/01/11 11:41:59;;;;;;;;;;;;;;;3.21;87.10;103224.56;5020999;28;20000;-76
2022/01/11 11:44:26;;;;;;;;;;;;;;;3.18;87.22;103215.00;5014249;28;19960;-78
2022/01/11 11:47:07;;;;;;;;;;;;;;;3.15;86.95;103224.41;5028453;28;19955;-77
2022/01/11 11:49:47;;;;;;;;;;;;;;;3.14;86.66;103220.97;4977703;28;20000;-77
2022/01/11 11:52:28;;;;;;;;;;;;;;;3.05;86.88;103216.41;5018464;28;19932;-76
2022/01/11 11:55:11;;;;;;;;;;;;;;;2.98;87.66;103226.66;4995536;28;22283;-75
2022/01/11 11:57:37;;;;;;;;;;;;;;;2.90;88.07;103221.28;5026113;28;19948;-76
2022/01/11 12:00:18;;;;;;;;;;;;;;;3.05;87.66;103220.75;5029322;28;19921;-77
2022/01/11 12:02:46;;;;;;;;;;;;;;;2.98;87.49;103224.06;5004948;28;19921;-78
2022/01/11 12:05:26;;;;;;;;;;;;;;;3.00;87.71;103217.16;5012939;28;19921;-78
2022/01/11 12:07:52;;;;;;;;;;;;;;;3.01;87.80;103216.31;5032057;28;19917;-77
2022/01/11 12:10:32;;;;;;;;;;;;;;;2.98;87.87;103218.88;5029842;28;20693;-79
2022/01/11 12:12:57;;;;;;;;;;;;;;;2.96;87.71;103212.75;5048280;28;19925;-77
2022/01/11 12:15:23;;;;;;;;;;;;;;;3.04;87.92;103206.88;5051298;28;20739;-78
2022/01/11 12:18:04;;;;;;;;;;;;;;;3.05;88.42;103213.81;5038992;28;19957;-79
2022/01/11 12:20:44;;;;;;;;;;;;;;;3.19;88.21;103208.97;5038799;28;20334;-78
2022/01/11 12:23:11;;;;;;;;;;;;;;;3.09;87.88;103206.97;5030979;28;20455;-77
2022/01/11 12:28:20;;;;;;;;;;;;;;;3.20;87.62;103204.63;5027274;28;20361;-80
2022/01/11 12:30:45;;;;;;;;;;;;;;;3.29;87.21;103197.03;5033585;28;19960;-78
2022/01/11 12:33:12;;;;;;;;;;;;;;;3.27;87.35;103195.25;5030109;28;19949;-78
2022/01/11 12:35:53;;;;;;;;;;;;;;;3.27;87.56;103197.84;5033741;28;19960;-78
2022/01/11 12:38:18;;;;;;;;;;;;;;;3.34;87.38;103187.63;5012239;28;19921;-77
2022/01/11 12:40:44;;;;;;;;;;;;;;;3.28;87.54;103192.69;5031626;28;19948;-78
2022/01/11 12:43:31;;;;;;;;;;;;;;;3.30;87.43;103187.53;5023560;28;19971;-79
2022/01/11 12:46:13;;;;;;;;;;;;;;;3.22;86.66;103188.22;5020082;28;20305;-79
2022/01/11 12:48:54;;;;;;;;;;;;;;;3.28;87.34;103191.81;5035785;28;20707;-79
2022/01/11 12:51:19;;;;;;;;;;;;;;;3.20;87.06;103189.03;5044877;28;19928;-78
2022/01/11 12:53:45;;;;;;;;;;;;;;;3.29;86.50;103184.03;5026175;28;20297;-78
2022/01/11 12:56:10;;;;;;;;;;;;;;;3.41;86.53;103175.66;5027190;28;19979;-78
2022/01/11 12:58:36;;;;;;;;;;;;;;;3.33;86.63;103175.50;5017440;28;19924;-79
2022/01/11 13:01:14;;;;;;;;;;;;;;;3.44;86.33;103170.50;5028668;28;19921;-78
2022/01/11 13:03:56;;;;;;;;;;;;;;;3.47;86.32;103173.16;5031191;28;19964;-78
2022/01/11 13:06:22;;;;;;;;;;;;;;;3.44;86.46;103173.09;5029763;28;19940;-80
2022/01/11 13:08:52;;;;;;;;;;;;;;;3.65;85.47;103161.38;5033381;28;20278;-77